Eagle River Union Airport


Codes: KEGV/EGV
Name: Eagle River Union Airport
City: Eagle River
Country: United States
Elevation: 1642 ft.
Website:
Wikipedia:

Photos at Eagle River Union Airport


   Photos courtesy of SpottingLog. You can add your own sightings and photos by signing up for a free trial today.



No photos found.

Weather at Eagle River Union Airport


Time (UTC)DescriptionTempratureWindCloud coverageVisibilityPressureHumidity
18-Apr-2024 00:00Light Rain6°C13 mph, NW100%10000m1004hPa95%
18-Apr-2024 03:00Overcast Clouds5°C11 mph, NW100%5815m1007hPa96%
18-Apr-2024 06:00Overcast Clouds4°C11 mph, NW100%10000m1010hPa92%
18-Apr-2024 09:00Overcast Clouds3°C9 mph, NW100%10000m1013hPa90%
18-Apr-2024 12:00Overcast Clouds3°C7 mph, W99%10000m1015hPa96%
18-Apr-2024 15:00Broken Clouds9°C9 mph, SW81%10000m1014hPa71%
18-Apr-2024 18:00Broken Clouds11°C11 mph, SW81%10000m1013hPa54%
18-Apr-2024 21:00Overcast Clouds12°C9 mph, SW100%10000m1011hPa48%
19-Apr-2024 00:00Overcast Clouds9°C9 mph, W94%10000m1012hPa49%
19-Apr-2024 03:00Scattered Clouds5°C9 mph, W48%10000m1014hPa60%
19-Apr-2024 06:00Scattered Clouds2°C9 mph, W38%10000m1015hPa66%
19-Apr-2024 09:00Clear Sky1°C9 mph, W2%10000m1014hPa72%
19-Apr-2024 12:00Clear Sky-0°C11 mph, W5%10000m1014hPa71%
19-Apr-2024 15:00Scattered Clouds3°C16 mph, W38%10000m1014hPa48%
19-Apr-2024 18:00Light Snow4°C13 mph, W69%10000m1013hPa46%
19-Apr-2024 21:00Overcast Clouds5°C16 mph, W100%10000m1013hPa41%
20-Apr-2024 00:00Light Snow3°C11 mph, W100%10000m1014hPa58%
20-Apr-2024 03:00Overcast Clouds1°C11 mph, W99%10000m1016hPa65%
20-Apr-2024 06:00Overcast Clouds-1°C9 mph, W100%10000m1016hPa82%
20-Apr-2024 09:00Broken Clouds-2°C9 mph, W62%10000m1017hPa79%
20-Apr-2024 12:00Broken Clouds-2°C11 mph, W78%10000m1018hPa74%
20-Apr-2024 15:00Overcast Clouds0°C13 mph, NW100%10000m1019hPa59%
20-Apr-2024 18:00Overcast Clouds2°C11 mph, NW100%10000m1020hPa53%
20-Apr-2024 21:00Overcast Clouds5°C11 mph, NW100%10000m1019hPa45%
21-Apr-2024 00:00Overcast Clouds4°C9 mph, NW100%10000m1020hPa53%
21-Apr-2024 03:00Few Clouds-1°C4 mph, W14%10000m1021hPa72%
21-Apr-2024 06:00Few Clouds-1°C7 mph, W13%10000m1021hPa71%
21-Apr-2024 09:00Clear Sky-2°C7 mph, W1%10000m1020hPa72%
21-Apr-2024 12:00Clear Sky-1°C9 mph, W1%10000m1020hPa67%
21-Apr-2024 15:00Clear Sky6°C13 mph, NW0%10000m1019hPa40%
21-Apr-2024 18:00Clear Sky11°C13 mph, NW0%10000m1016hPa29%
21-Apr-2024 21:00Clear Sky12°C11 mph, NW0%10000m1015hPa30%
22-Apr-2024 00:00Clear Sky8°C7 mph, NW3%10000m1015hPa49%
22-Apr-2024 03:00Clear Sky3°C4 mph, SW1%10000m1017hPa68%
22-Apr-2024 06:00Clear Sky2°C7 mph, W1%10000m1017hPa78%
22-Apr-2024 09:00Clear Sky0°C4 mph, W7%10000m1017hPa83%
22-Apr-2024 12:00Scattered Clouds2°C4 mph, W49%10000m1017hPa77%
22-Apr-2024 15:00Overcast Clouds9°C7 mph, SW100%10000m1015hPa48%
22-Apr-2024 18:00Overcast Clouds13°C7 mph, SW100%10000m1012hPa32%
22-Apr-2024 21:00Overcast Clouds13°C9 mph, SW100%10000m1010hPa39%